Time;durP1;ratioP1;P1;durP2;ratioP2;P2;SDS_P1;SDS_P2;PMS_P1;PMS_P2;Temp;Humidity;BMP_temperature;BMP_pressure;BME280_temperature;BME280_humidity;BME280_pressure;Samples;Min_cycle;Max_cycle;Signal;HPM_P1;HPM_P2
2023/08/04 00:00:34;;;;;;;8.27;3.53;;;;;;;15.00;100.00;101005.41;5090049;28;20282;-37
2023/08/04 00:03:00;;;;;;;;;;;;;;;15.08;100.00;101012.28;5090187;28;20218;-37
2023/08/04 00:05:25;;;;;;;9.30;4.00;;;;;;;14.94;100.00;101004.53;5089612;28;19957;-37
2023/08/04 00:07:50;;;;;;;11.50;4.65;;;;;;;14.87;100.00;101011.25;5089663;28;20266;-37
2023/08/04 00:10:16;;;;;;;8.60;3.53;;;;;;;14.89;100.00;101009.09;5081994;28;20029;-37
2023/08/04 00:12:42;;;;;;;;;;;;;;;14.97;100.00;101007.81;5077391;28;20034;-36
2023/08/04 00:15:07;;;;;;;7.20;3.63;;;;;;;14.82;100.00;101005.75;5076795;28;20364;-37
2023/08/04 00:17:38;;;;;;;;;;;;;;;14.93;100.00;101012.94;5076885;28;20056;-37
2023/08/04 00:20:04;;;;;;;12.70;4.25;;;;;;;14.77;100.00;101014.66;5076207;28;19958;-38
2023/08/04 00:22:29;;;;;;;8.82;4.50;;;;;;;14.64;100.00;101001.44;5076959;28;20028;-37
2023/08/04 00:24:55;;;;;;;9.73;3.70;;;;;;;14.67;100.00;101015.38;5076125;28;20078;-37
2023/08/04 00:27:20;;;;;;;9.40;3.90;;;;;;;14.70;100.00;101015.97;5076385;28;20035;-37
2023/08/04 00:29:45;;;;;;;;;;;;;;;14.78;100.00;101018.22;5077249;28;20028;-37
2023/08/04 00:32:10;;;;;;;6.93;3.63;;;;;;;14.58;100.00;101014.16;5076530;28;20006;-37
2023/08/04 00:34:36;;;;;;;9.07;4.27;;;;;;;14.64;100.00;101024.06;5076450;28;20350;-37
2023/08/04 00:37:01;;;;;;;12.20;3.58;;;;;;;14.56;100.00;101016.34;5076426;28;20302;-37
2023/08/04 00:39:27;;;;;;;;;;;;;;;14.70;100.00;101024.94;5075948;28;20037;-37
2023/08/04 00:41:52;;;;;;;9.48;3.97;;;;;;;14.49;100.00;101015.69;5076183;28;20368;-37
2023/08/04 00:44:17;;;;;;;15.13;4.82;;;;;;;14.52;100.00;101027.97;5075785;28;20098;-37
2023/08/04 00:46:43;;;;;;;7.40;3.85;;;;;;;14.55;100.00;101032.94;5075420;28;20040;-37
2023/08/04 00:49:09;;;;;;;6.57;3.92;;;;;;;14.46;100.00;101026.25;5075665;28;20032;-37
2023/08/04 00:51:35;;;;;;;;;;;;;;;14.59;100.00;101039.47;5076096;28;20514;-37
2023/08/04 00:54:01;;;;;;;8.60;4.18;;;;;;;14.33;100.00;101025.53;5076148;28;19913;-37
2023/08/04 00:56:28;;;;;;;10.85;4.03;;;;;;;14.43;100.00;101035.72;5075556;28;20393;-37
2023/08/04 00:58:54;;;;;;;9.27;3.75;;;;;;;14.32;100.00;101042.09;5076351;28;20368;-37
2023/08/04 01:01:19;;;;;;;9.73;4.00;;;;;;;14.29;100.00;101042.59;5075424;28;20036;-37
2023/08/04 01:03:45;;;;;;;12.88;4.10;;;;;;;14.27;100.00;101045.56;5075359;28;20452;-37
2023/08/04 01:06:33;;;;;;;8.35;3.70;;;;;;;14.20;100.00;101046.81;5075593;28;20025;-37
2023/08/04 01:09:11;;;;;;;9.40;3.95;;;;;;;14.16;100.00;101050.06;5075222;28;20086;-37
2023/08/04 01:11:46;;;;;;;9.50;3.80;;;;;;;14.15;100.00;101053.00;5075782;28;20071;-37
2023/08/04 01:14:11;;;;;;;8.48;3.80;;;;;;;13.99;100.00;101043.78;5075695;28;20073;-37
2023/08/04 01:16:37;;;;;;;10.05;4.13;;;;;;;14.06;100.00;101065.41;5075763;28;20033;-37
2023/08/04 01:19:02;;;;;;;10.27;5.18;;;;;;;13.98;100.00;101053.03;5075285;28;20075;-37
2023/08/04 01:21:27;;;;;;;;;;;;;;;14.18;100.00;101068.81;5074414;28;20052;-37
2023/08/04 01:23:54;;;;;;;8.65;3.95;;;;;;;14.04;100.00;101053.94;5074661;28;19916;-37
2023/08/04 01:26:21;;;;;;;9.55;4.30;;;;;;;14.06;100.00;101058.06;5075228;28;20029;-37
2023/08/04 01:28:48;;;;;;;10.57;4.22;;;;;;;14.07;100.00;101054.25;5074524;28;20544;-37
2023/08/04 01:31:14;;;;;;;10.63;4.28;;;;;;;14.05;100.00;101064.53;5075068;28;20033;-37
2023/08/04 01:33:40;;;;;;;10.10;4.13;;;;;;;13.99;100.00;101067.44;5074788;28;20428;-37
2023/08/04 01:36:06;;;;;;;;;;;;;;;14.15;100.00;101069.31;5075699;28;20020;-37
2023/08/04 01:38:31;;;;;;;10.13;3.97;;;;;;;13.94;100.00;101070.91;5074312;28;19919;-37
2023/08/04 01:40:56;;;;;;;;;;;;;;;14.07;100.00;101070.56;5075659;28;20028;-38
2023/08/04 01:43:21;;;;;;;9.70;4.17;;;;;;;13.94;100.00;101073.63;5074847;28;19943;-37
2023/08/04 01:45:47;;;;;;;8.43;3.78;;;;;;;14.04;100.00;101073.78;5075073;28;20266;-37
2023/08/04 01:48:12;;;;;;;;;;;;;;;14.12;100.00;101067.94;5075178;28;20090;-37
2023/08/04 01:50:37;;;;;;;11.47;4.00;;;;;;;14.01;100.00;101074.28;5074396;28;19908;-37
2023/08/04 01:53:03;;;;;;;11.00;4.00;;;;;;;13.99;100.00;101078.31;5074196;28;20333;-37
2023/08/04 01:55:28;;;;;;;7.10;4.17;;;;;;;13.99;100.00;101073.69;5074373;28;20293;-37
2023/08/04 01:57:53;;;;;;;10.80;3.90;;;;;;;14.01;100.00;101074.28;5073858;28;20341;-37
2023/08/04 02:00:19;;;;;;;8.40;4.05;;;;;;;13.97;100.00;101078.56;5074538;28;20754;-37
2023/08/04 02:02:44;;;;;;;;;;;;;;;14.10;100.00;101074.69;5074852;28;20055;-37
2023/08/04 02:05:11;;;;;;;10.90;4.00;;;;;;;14.01;100.00;101082.44;5074157;28;19909;-37
2023/08/04 02:07:36;;;;;;;11.23;4.30;;;;;;;13.97;100.00;101077.75;5074626;28;20658;-38
2023/08/04 02:10:03;;;;;;;8.98;4.47;;;;;;;13.98;100.00;101084.84;5072838;28;20028;-37
2023/08/04 02:12:28;;;;;;;9.25;4.30;;;;;;;14.01;100.00;101082.44;5074218;28;20390;-37
2023/08/04 02:14:54;;;;;;;9.10;4.10;;;;;;;13.98;100.00;101072.06;5073699;28;20028;-37
2023/08/04 02:17:19;;;;;;;10.30;4.43;;;;;;;14.10;100.00;101088.28;5073967;28;20067;-37
2023/08/04 02:19:44;;;;;;;;;;;;;;;14.19;100.00;101086.78;5073921;28;20029;-37
2023/08/04 02:22:10;;;;;;;8.07;4.60;;;;;;;14.14;100.00;101090.25;5073602;28;19912;-37
2023/08/04 02:24:35;;;;;;;;;;;;;;;14.22;100.00;101097.19;5074219;28;20025;-37
2023/08/04 02:27:00;;;;;;;10.02;4.65;;;;;;;14.11;100.00;101085.31;5073854;28;19912;-37
2023/08/04 02:29:25;;;;;;;13.45;4.15;;;;;;;14.15;100.00;101091.91;5073819;28;20024;-37
2023/08/04 02:31:51;;;;;;;;;;;;;;;14.25;100.00;101090.41;5073998;28;20033;-37
2023/08/04 02:34:16;;;;;;;10.13;4.45;;;;;;;14.18;100.00;101098.75;5073275;28;19958;-37
2023/08/04 02:36:42;;;;;;;;;;;;;;;14.27;100.00;101101.88;5074998;28;20441;-37
2023/08/04 02:39:07;;;;;;;10.23;4.57;;;;;;;14.17;100.00;101100.66;5073601;28;19982;-37
2023/08/04 02:41:33;;;;;;;9.32;4.55;;;;;;;14.20;100.00;101098.47;5073763;28;20043;-37
2023/08/04 02:44:00;;;;;;;;;;;;;;;14.29;100.00;101100.53;5074371;28;20031;-37
2023/08/04 02:46:25;;;;;;;6.57;4.18;;;;;;;14.22;100.00;101105.34;5073369;28;20368;-37
2023/08/04 02:48:52;;;;;;;7.18;3.97;;;;;;;14.23;100.00;101101.53;5073614;28;20042;-37
2023/08/04 02:51:17;;;;;;;10.00;4.93;;;;;;;14.22;100.00;101099.91;5073255;28;20469;-38
2023/08/04 02:53:44;;;;;;;6.15;4.10;;;;;;;14.21;100.00;101102.88;5073242;28;20037;-37
2023/08/04 02:56:11;;;;;;;11.25;4.30;;;;;;;14.16;100.00;101081.88;5073182;28;20111;-38
2023/08/04 02:58:36;;;;;;;9.95;4.30;;;;;;;14.23;100.00;101104.25;5073562;28;20051;-38
2023/08/04 03:01:02;;;;;;;9.57;4.65;;;;;;;14.25;100.00;101102.13;5073426;28;20059;-37
2023/08/04 03:03:27;;;;;;;;;;;;;;;14.33;100.00;101100.88;5073529;28;20055;-37
2023/08/04 03:05:56;;;;;;;8.13;4.07;;;;;;;14.24;100.00;101100.47;5073511;28;19908;-37
2023/08/04 03:08:21;;;;;;;11.18;4.93;;;;;;;14.25;100.00;101101.28;5073144;28;20271;-37
2023/08/04 03:10:47;;;;;;;7.53;4.07;;;;;;;14.24;100.00;101103.19;5074149;28;20028;-37
2023/08/04 03:13:12;;;;;;;11.18;4.47;;;;;;;14.27;100.00;101110.84;5073353;28;20028;-37
2023/08/04 03:15:37;;;;;;;10.32;4.40;;;;;;;14.29;100.00;101102.44;5073565;28;20036;-37
2023/08/04 03:18:03;;;;;;;;;;;;;;;14.37;100.00;101096.59;5074264;28;20522;-38
2023/08/04 03:20:36;;;;;;;10.40;4.75;;;;;;;14.25;100.00;101112.16;5073211;28;19959;-38
2023/08/04 03:23:02;;;;;;;10.23;4.47;;;;;;;14.29;100.00;101114.13;5073571;28;20032;-38
2023/08/04 03:25:27;;;;;;;9.00;4.30;;;;;;;14.26;100.00;101111.94;5073197;28;20021;-38
2023/08/04 03:27:52;;;;;;;;;;;;;;;14.37;100.00;101112.91;5073949;28;20033;-37
2023/08/04 03:30:18;;;;;;;10.23;4.27;;;;;;;14.28;100.00;101117.13;5073182;28;19912;-38
2023/08/04 03:32:43;;;;;;;7.13;4.15;;;;;;;14.23;100.00;101106.16;5073160;28;20259;-38
2023/08/04 03:35:08;;;;;;;;;;;;;;;14.37;100.00;101121.06;5073558;28;20025;-38
2023/08/04 03:37:34;;;;;;;6.27;3.57;;;;;;;14.24;100.00;101099.63;5073420;28;20003;-37
2023/08/04 03:39:59;;;;;;;12.55;4.72;;;;;;;14.33;100.00;101118.00;5073268;28;20673;-38
2023/08/04 03:42:25;;;;;;;;;;;;;;;14.40;100.00;101118.69;5074158;28;20024;-37
2023/08/04 03:44:50;;;;;;;10.18;4.00;;;;;;;14.25;100.00;101112.16;5073705;28;19912;-38
2023/08/04 03:47:15;;;;;;;;;;;;;;;14.40;100.00;101123.31;5077793;28;20028;-38
2023/08/04 03:49:41;;;;;;;6.88;3.83;;;;;;;14.28;100.00;101112.50;5076736;28;20357;-38
2023/08/04 03:52:06;;;;;;;8.20;4.38;;;;;;;14.34;100.00;101118.84;5076721;28;20029;-37
2023/08/04 03:54:31;;;;;;;9.38;4.30;;;;;;;14.34;100.00;101122.38;5076659;28;20017;-37
2023/08/04 03:56:57;;;;;;;10.73;4.45;;;;;;;14.30;100.00;101123.13;5076604;28;20484;-38
2023/08/04 03:59:22;;;;;;;;;;;;;;;14.40;100.00;101123.31;5076722;28;20049;-37
2023/08/04 04:01:47;;;;;;;7.35;4.03;;;;;;;14.32;100.00;101121.81;5077133;28;20360;-37
2023/08/04 04:04:13;;;;;;;7.38;3.85;;;;;;;14.32;100.00;101131.88;5075272;28;20021;-37
2023/08/04 04:06:38;;;;;;;;;;;;;;;14.39;100.00;101127.06;5077207;28;20040;-37
2023/08/04 04:09:03;;;;;;;9.70;3.90;;;;;;;14.23;100.00;101119.75;5077198;28;19912;-38
2023/08/04 04:11:29;;;;;;;;;;;;;;;14.36;100.00;101136.56;5077353;28;20025;-37
2023/08/04 04:13:54;;;;;;;11.20;4.50;;;;;;;14.27;100.00;101126.34;5076270;28;19912;-38
2023/08/04 04:16:20;;;;;;;8.00;4.13;;;;;;;14.28;100.00;101126.09;5076284;28;20074;-37
2023/08/04 04:18:45;;;;;;;7.88;3.80;;;;;;;14.20;100.00;101125.69;5076089;28;20278;-37
2023/08/04 04:21:11;;;;;;;;;;;;;;;14.36;100.00;101130.31;5077202;28;20043;-37
2023/08/04 04:23:36;;;;;;;9.43;4.27;;;;;;;14.29;100.00;101124.19;5075878;28;19965;-37
2023/08/04 04:26:03;;;;;;;6.57;4.10;;;;;;;14.25;100.00;101133.91;5076155;28;20267;-37
2023/08/04 04:28:29;;;;;;;7.40;4.05;;;;;;;14.22;100.00;101137.97;5075748;28;20750;-37
2023/08/04 04:31:02;;;;;;;8.77;4.20;;;;;;;14.27;100.00;101143.50;5075766;28;20032;-37
2023/08/04 04:33:28;;;;;;;8.70;4.22;;;;;;;14.27;100.00;101139.97;5076220;28;20039;-37
2023/08/04 04:35:53;;;;;;;6.15;3.63;;;;;;;14.26;100.00;101141.03;5076232;28;20024;-37
2023/08/04 04:38:18;;;;;;;;;;;;;;;14.39;100.00;101151.56;5076316;28;20522;-37
2023/08/04 04:40:44;;;;;;;9.07;4.05;;;;;;;14.23;100.00;101153.22;5075838;28;19913;-38
2023/08/04 04:43:09;;;;;;;;;;;;;;;14.35;100.00;101145.00;5076810;28;20032;-37
2023/08/04 04:45:34;;;;;;;6.27;3.50;;;;;;;14.29;100.00;101152.22;5076077;28;19935;-37
2023/08/04 04:48:00;;;;;;;7.07;3.57;;;;;;;14.23;100.00;101157.84;5076287;28;20302;-37
2023/08/04 04:50:25;;;;;;;6.78;4.05;;;;;;;14.17;100.00;101157.75;5075671;28;20311;-38
2023/08/04 04:52:51;;;;;;;8.13;4.10;;;;;;;14.09;100.00;101160.88;5075707;28;20035;-37
2023/08/04 04:55:17;;;;;;;8.20;4.25;;;;;;;14.17;100.00;101163.19;5075517;28;20484;-36
2023/08/04 04:57:42;;;;;;;7.70;3.83;;;;;;;14.19;100.00;101176.53;5074916;28;20028;-36
2023/08/04 05:00:08;;;;;;;6.50;3.88;;;;;;;14.25;100.00;101174.72;5076059;28;20107;-37
2023/08/04 05:02:34;;;;;;;5.78;3.60;;;;;;;14.24;100.00;101181.25;5075746;28;20349;-37
2023/08/04 05:04:59;;;;;;;7.72;3.90;;;;;;;14.25;100.00;101180.16;5075390;28;20449;-37
2023/08/04 05:07:24;;;;;;;9.73;4.80;;;;;;;14.28;100.00;101177.78;5075059;28;20485;-36
2023/08/04 05:09:50;;;;;;;;;;;;;;;14.38;100.00;101182.56;5075327;28;20052;-36
2023/08/04 05:12:15;;;;;;;12.18;4.50;;;;;;;14.24;100.00;101175.81;5075737;28;19915;-37
2023/08/04 05:14:40;;;;;;;12.05;4.13;;;;;;;14.36;100.00;101185.53;5075122;28;20028;-37
2023/08/04 05:17:06;;;;;;;;;;;;;;;14.47;100.00;101186.50;5076130;28;20364;-37
2023/08/04 05:19:31;;;;;;;8.75;4.20;;;;;;;14.41;100.00;101182.06;5074908;28;19919;-37
2023/08/04 05:21:57;;;;;;;;;;;;;;;14.51;100.00;101182.25;5075761;28;20028;-37
2023/08/04 05:24:22;;;;;;;8.93;4.03;;;;;;;14.50;100.00;101194.22;5074364;28;19953;-37
2023/08/04 05:26:47;;;;;;;9.45;4.18;;;;;;;14.54;100.00;101184.50;5074928;28;20062;-37
2023/08/04 05:29:13;;;;;;;10.07;4.50;;;;;;;14.54;100.00;101187.22;5074572;28;20056;-37
2023/08/04 05:31:38;;;;;;;8.45;4.10;;;;;;;14.67;100.00;101186.03;5075317;28;20392;-37
2023/08/04 05:34:03;;;;;;;;;;;;;;;14.82;100.00;101193.59;5074865;28;20028;-37
2023/08/04 05:36:29;;;;;;;11.70;4.55;;;;;;;14.84;100.00;101188.75;5074717;28;19908;-37
2023/08/04 05:38:54;;;;;;;;;;;;;;;15.03;100.00;101190.09;5074677;28;20123;-37
2023/08/04 05:41:19;;;;;;;8.60;4.00;;;;;;;15.08;100.00;101190.16;5074584;28;20356;-37
2023/08/04 05:43:45;;;;;;;;;;;;;;;15.35;100.00;101192.94;5075485;28;20028;-37
2023/08/04 05:46:12;;;;;;;9.90;4.40;;;;;;;15.43;100.00;101194.41;5073894;28;19916;-37
2023/08/04 05:48:38;;;;;;;8.38;4.57;;;;;;;15.53;100.00;101197.25;5074367;28;20266;-37
2023/08/04 05:51:05;;;;;;;12.07;4.63;;;;;;;15.62;100.00;101201.16;5074087;28;20024;-37
2023/08/04 05:53:30;;;;;;;8.38;4.28;;;;;;;15.69;100.00;101201.81;5074076;28;20570;-36
2023/08/04 05:55:55;;;;;;;7.40;4.13;;;;;;;15.82;100.00;101205.22;5074366;28;20133;-36
2023/08/04 05:58:21;;;;;;;;;;;;;;;15.98;100.00;101217.91;5074661;28;20041;-37
2023/08/04 06:00:46;;;;;;;10.63;4.00;;;;;;;15.88;100.00;101212.34;5074757;28;19920;-37
2023/08/04 06:03:11;;;;;;;;;;;;;;;16.15;100.00;101212.31;5074529;28;20350;-37
2023/08/04 06:05:37;;;;;;;6.87;3.50;;;;;;;16.12;100.00;101207.41;5073873;28;20313;-37
2023/08/04 06:08:02;;;;;;;;;;;;;;;16.38;100.00;101220.19;5073757;28;20709;-37
2023/08/04 06:10:27;;;;;;;10.77;4.40;;;;;;;16.32;100.00;101218.50;5073720;28;20343;-37
2023/08/04 06:12:53;;;;;;;;;;;;;;;16.52;100.00;101222.47;5074458;28;20033;-36
2023/08/04 06:15:18;;;;;;;6.00;3.75;;;;;;;16.52;100.00;101226.03;5073665;28;19916;-37
2023/08/04 06:17:44;;;;;;;;;;;;;;;16.73;100.00;101227.84;5074617;28;20029;-37
2023/08/04 06:20:10;;;;;;;8.57;4.22;;;;;;;16.68;100.00;101232.41;5073641;28;20275;-36
2023/08/04 06:22:36;;;;;;;;;;;;;;;16.88;100.00;101237.22;5074631;28;20040;-37
2023/08/04 06:25:03;;;;;;;7.65;3.58;;;;;;;16.69;100.00;101237.63;5073775;28;19913;-37
2023/08/04 06:27:28;;;;;;;7.32;4.18;;;;;;;16.54;100.00;101236.66;5073145;28;20036;-37
2023/08/04 06:29:54;;;;;;;;;;;;;;;16.68;100.00;101241.44;5073994;28;20032;-38
2023/08/04 06:32:19;;;;;;;9.77;4.05;;;;;;;16.51;100.00;101240.75;5074354;28;19913;-37
2023/08/04 06:34:44;;;;;;;;;;;;;;;16.62;100.00;101245.22;5074107;28;20472;-37
2023/08/04 06:37:10;;;;;;;7.80;4.10;;;;;;;16.57;100.00;101247.91;5073704;28;19973;-37
2023/08/04 06:39:35;;;;;;;;;;;;;;;16.74;100.00;101253.25;5074550;28;20033;-37
2023/08/04 06:42:00;;;;;;;9.43;4.47;;;;;;;16.56;100.00;101240.81;5073728;28;20407;-37
2023/08/04 06:44:26;;;;;;;;;;;;;;;16.79;100.00;101256.03;5074588;28;20031;-38
2023/08/04 06:46:51;;;;;;;8.13;3.65;;;;;;;16.64;100.00;101251.25;5073644;28;19913;-37
2023/08/04 06:49:16;;;;;;;;;;;;;;;16.82;100.00;101257.41;5074016;28;20032;-37
2023/08/04 06:51:41;;;;;;;8.73;4.03;;;;;;;16.76;100.00;101270.19;5073244;28;19912;-36
2023/08/04 06:54:07;;;;;;;;;;;;;;;16.87;100.00;101265.63;5074099;28;20275;-37
2023/08/04 06:56:32;;;;;;;8.13;3.55;;;;;;;16.83;100.00;101272.69;5073473;28;19912;-37
2023/08/04 06:58:58;;;;;;;;;;;;;;;16.96;100.00;101264.88;5074190;28;20048;-37
2023/08/04 07:01:23;;;;;;;7.17;3.40;;;;;;;16.85;100.00;101256.88;5073259;28;20438;-36
2023/08/04 07:03:48;;;;;;;;;;;;;;;17.05;100.00;101273.41;5074195;28;20267;-37
2023/08/04 07:06:14;;;;;;;5.43;3.20;;;;;;;16.99;100.00;101271.72;5073177;28;19913;-37
2023/08/04 07:08:42;;;;;;;;;;;;;;;17.12;100.00;101275.91;5074061;28;20266;-37
2023/08/04 07:11:17;;;;;;;9.07;3.40;;;;;;;17.07;100.00;101279.41;5073965;28;19978;-37
2023/08/04 07:13:44;;;;;;;6.25;2.63;;;;;;;17.04;100.00;101274.50;5073623;28;20059;-37
2023/08/04 07:16:10;;;;;;;6.55;2.85;;;;;;;17.09;100.00;101288.19;5073603;28;20372;-37
2023/08/04 07:18:36;;;;;;;;;;;;;;;17.21;100.00;101282.50;5073385;28;20073;-37
2023/08/04 07:21:12;;;;;;;6.82;2.67;;;;;;;17.21;100.00;101290.72;5076343;28;19912;-37
2023/08/04 07:23:38;;;;;;;6.75;2.20;;;;;;;17.25;100.00;101289.09;5077490;28;20024;-37
2023/08/04 07:26:04;;;;;;;7.25;2.90;;;;;;;17.18;100.00;101280.31;5077287;28;20063;-37
2023/08/04 07:28:29;;;;;;;;;;;;;;;17.37;100.00;101283.41;5076099;28;20028;-40
2023/08/04 07:30:55;;;;;;;4.82;2.55;;;;;;;17.31;100.00;101284.47;5077694;28;19912;-38
2023/08/04 07:33:21;;;;;;;;;;;;;;;17.45;100.00;101286.47;5077741;28;20028;-38
2023/08/04 07:35:55;;;;;;;3.67;1.80;;;;;;;17.37;100.00;101283.41;5077113;28;19924;-38
2023/08/04 07:38:22;;;;;;;4.80;1.92;;;;;;;17.40;100.00;101283.72;5077707;28;20385;-38
2023/08/04 07:40:47;;;;;;;5.32;2.00;;;;;;;17.43;100.00;101294.13;5076926;28;20033;-38
2023/08/04 07:43:13;;;;;;;;;;;;;;;17.55;100.00;101291.16;5077312;28;20097;-38
2023/08/04 07:45:39;;;;;;;4.47;1.70;;;;;;;17.49;100.00;101298.53;5076801;28;19915;-38
2023/08/04 07:48:04;;;;;;;;;;;;;;;17.64;100.00;101294.22;5077018;28;20056;-38
2023/08/04 07:50:29;;;;;;;3.30;1.70;;;;;;;17.59;100.00;101295.00;5077043;28;19908;-38
2023/08/04 07:52:55;;;;;;;;;;;;;;;17.78;100.00;101302.78;5077226;28;20324;-38
2023/08/04 07:55:21;;;;;;;6.97;2.10;;;;;;;17.69;100.00;101306.00;5076667;28;20280;-38
2023/08/04 07:57:47;;;;;;;5.93;2.28;;;;;;;17.75;100.00;101304.94;5077378;28;20033;-37
2023/08/04 08:00:12;;;;;;;;;;;;;;;17.92;100.00;101306.66;5076952;28;20546;-37
2023/08/04 08:02:37;;;;;;;5.10;2.03;;;;;;;17.87;100.00;101315.69;5076208;28;20021;-37
2023/08/04 08:05:03;;;;;;;;;;;;;;;18.03;100.00;101305.59;5076952;28;20384;-37
2023/08/04 08:07:28;;;;;;;4.85;1.90;;;;;;;18.01;100.00;101302.31;5076777;28;19917;-37
2023/08/04 08:09:54;;;;;;;;;;;;;;;18.18;100.00;101304.81;5076895;28;20099;-37
2023/08/04 08:12:19;;;;;;;4.87;1.90;;;;;;;18.21;100.00;101315.22;5076156;28;19912;-37
2023/08/04 08:14:44;;;;;;;;;;;;;;;18.40;100.00;101307.31;5076693;28;20285;-38
2023/08/04 08:17:10;;;;;;;4.00;1.60;;;;;;;18.24;100.00;101304.53;5076301;28;20379;-38
2023/08/04 08:19:35;;;;;;;;;;;;;;;18.46;100.00;101318.00;5076604;28;20758;-38
2023/08/04 08:22:01;;;;;;;3.55;1.70;;;;;;;18.38;100.00;101312.22;5075957;28;19913;-38
2023/08/04 08:24:26;;;;;;;;;;;;;;;18.55;100.00;101312.00;5076804;28;20062;-38
2023/08/04 08:26:51;;;;;;;5.27;1.87;;;;;;;18.44;100.00;101317.44;5076426;28;19927;-38
2023/08/04 08:29:16;;;;;;;;;;;;;;;18.51;100.00;101320.75;5076224;28;20619;-38
2023/08/04 08:31:42;;;;;;;4.32;1.98;;;;;;;18.19;100.00;101318.22;5076397;28;19913;-38
2023/08/04 08:34:07;;;;;;;4.18;1.40;;;;;;;18.18;100.00;101324.78;5076021;28;20449;-38
2023/08/04 08:36:32;;;;;;;;;;;;;;;18.28;100.00;101330.28;5076449;28;20032;-38
2023/08/04 08:38:58;;;;;;;2.92;1.50;;;;;;;18.08;100.00;101338.44;5075491;28;19912;-38
2023/08/04 08:41:23;;;;;;;;;;;;;;;18.17;100.00;101341.50;5076379;28;20431;-38
2023/08/04 08:43:49;;;;;;;3.15;1.38;;;;;;;17.98;100.00;101344.69;5075813;28;19912;-38
2023/08/04 08:46:15;;;;;;;;;;;;;;;18.12;100.00;101345.03;5076770;28;20028;-38
2023/08/04 08:48:44;;;;;;;3.75;1.60;;;;;;;18.01;100.00;101344.19;5075705;28;20382;-38
2023/08/04 08:51:20;;;;;;;3.70;1.50;;;;;;;18.04;100.00;101341.97;5076040;28;20036;-38
2023/08/04 08:53:49;;;;;;;2.45;1.42;;;;;;;18.14;100.00;101353.78;5075949;28;20024;-38
2023/08/04 08:56:16;;;;;;;4.13;1.23;;;;;;;18.17;100.00;101356.00;5075596;28;20028;-38
2023/08/04 08:58:42;;;;;;;2.38;1.35;;;;;;;18.23;100.00;101359.56;5075589;28;20444;-38
2023/08/04 09:01:08;;;;;;;3.38;1.30;;;;;;;18.40;100.00;101357.44;5076324;28;20029;-38
2023/08/04 09:03:35;;;;;;;4.47;1.30;;;;;;;18.52;100.00;101359.91;5076229;28;20028;-38
2023/08/04 09:06:00;;;;;;;3.10;1.20;;;;;;;18.56;100.00;101350.06;5076211;28;20024;-38
2023/08/04 09:08:27;;;;;;;;;;;;;;;18.77;100.00;101351.72;5076061;28;20106;-38
2023/08/04 09:10:52;;;;;;;2.03;1.10;;;;;;;18.71;100.00;101357.50;5075073;28;19938;-38
2023/08/04 09:13:17;;;;;;;;;;;;;;;18.88;100.00;101357.22;5075620;28;20032;-38
2023/08/04 09:15:48;;;;;;;2.13;0.90;;;;;;;18.83;100.00;101359.94;5075790;28;20050;-39
2023/08/04 09:18:27;;;;;;;3.65;1.20;;;;;;;18.82;100.00;101352.84;5075357;28;20032;-38
2023/08/04 09:21:13;;;;;;;3.35;1.27;;;;;;;18.76;100.00;101350.09;5075071;28;20048;-38
2023/08/04 09:23:46;;;;;;;3.72;1.13;;;;;;;18.80;100.00;101366.00;5075054;28;20072;-38
2023/08/04 09:26:12;;;;;;;3.00;1.40;;;;;;;18.80;100.00;101366.00;5075847;28;20028;-38
2023/08/04 09:28:37;;;;;;;;;;;;;;;18.94;100.00;101361.63;5075610;28;20025;-38
2023/08/04 09:31:10;;;;;;;3.17;1.33;;;;;;;18.77;100.00;101357.22;5075486;28;19916;-38
2023/08/04 09:33:41;;;;;;;4.28;1.42;;;;;;;18.75;100.00;101364.91;5075159;28;20457;-38
2023/08/04 09:36:12;;;;;;;1.88;0.95;;;;;;;18.60;100.00;101374.97;5075310;28;20115;-38
2023/08/04 09:38:39;;;;;;;2.75;1.10;;;;;;;18.51;100.00;101381.00;5074867;28;20376;-38
2023/08/04 09:41:07;;;;;;;1.42;0.60;;;;;;;18.44;100.00;101374.94;5075251;28;20024;-37
2023/08/04 09:43:33;;;;;;;1.30;0.68;;;;;;;18.45;100.00;101375.78;5073784;28;20024;-37
2023/08/04 09:46:06;;;;;;;2.00;0.70;;;;;;;18.45;100.00;101381.25;5074550;28;20492;-38
2023/08/04 09:48:33;;;;;;;2.53;0.75;;;;;;;18.39;100.00;101382.31;5074855;28;20397;-38
2023/08/04 09:51:07;;;;;;;2.92;1.02;;;;;;;18.39;100.00;101380.41;5074477;28;20052;-37
2023/08/04 09:53:36;;;;;;;1.77;0.80;;;;;;;18.43;100.00;101375.22;5074401;28;20411;-38
2023/08/04 09:56:02;;;;;;;1.98;0.80;;;;;;;18.60;100.00;101378.53;5074126;28;20111;-38
2023/08/04 09:58:28;;;;;;;;;;;;;;;18.88;100.00;101373.66;5074653;28;20116;-38
2023/08/04 10:00:54;;;;;;;1.98;0.80;;;;;;;18.95;100.00;101372.28;5074168;28;19920;-38
2023/08/04 10:03:20;;;;;;;;;;;;;;;19.18;100.00;101373.66;5075005;28;20028;-38
2023/08/04 10:05:45;;;;;;;2.80;0.95;;;;;;;19.44;100.00;101363.47;5074021;28;20446;-38
2023/08/04 10:08:11;;;;;;;2.33;0.90;;;;;;;19.70;100.00;101369.72;5074151;28;20024;-38
2023/08/04 10:10:36;;;;;;;2.67;1.10;;;;;;;19.64;100.00;101370.03;5073897;28;20055;-38
2023/08/04 10:13:02;;;;;;;2.58;1.10;;;;;;;19.50;100.00;101362.34;5073809;28;20086;-38
2023/08/04 10:15:28;;;;;;;3.83;1.10;;;;;;;19.47;100.00;101371.16;5074350;28;20025;-38
2023/08/04 10:17:56;;;;;;;2.33;0.90;;;;;;;19.43;100.00;101378.28;5074000;28;20036;-38
2023/08/04 10:20:24;;;;;;;4.78;1.55;;;;;;;19.39;100.00;101381.84;5074209;28;20109;-38
2023/08/04 10:22:49;;;;;;;3.35;1.20;;;;;;;19.37;100.00;101376.63;5073942;28;20033;-38
2023/08/04 10:25:15;;;;;;;;;;;;;;;19.49;100.00;101384.56;5074273;28;20078;-38
2023/08/04 10:27:48;;;;;;;4.28;1.10;;;;;;;19.32;100.00;101379.38;5074130;28;19908;-38
2023/08/04 10:30:14;;;;;;;1.95;1.02;;;;;;;19.28;100.00;101383.78;5073780;28;20039;-38
2023/08/04 10:32:40;;;;;;;;;;;;;;;19.49;100.00;101377.16;5074566;28;20032;-38
2023/08/04 10:35:07;;;;;;;3.63;1.42;;;;;;;19.42;100.00;101373.91;5073753;28;19987;-38
2023/08/04 10:37:48;;;;;;;2.97;1.17;;;;;;;19.78;100.00;101380.13;5074319;28;20024;-38
2023/08/04 10:40:32;;;;;;;8.93;1.73;;;;;;;20.19;100.00;101379.94;5073371;28;20028;-38
2023/08/04 10:43:00;;;;;;;3.58;1.23;;;;;;;20.24;98.38;101384.59;5074290;28;20129;-38
2023/08/04 10:45:52;;;;;;;5.35;1.33;;;;;;;20.28;100.00;101378.25;5073590;28;20037;-38
2023/08/04 10:48:20;;;;;;;2.47;0.93;;;;;;;20.14;97.56;101379.97;5067122;28;20147;-38
2023/08/04 10:50:46;;;;;;;3.30;1.08;;;;;;;20.21;99.25;101386.00;5073867;28;20338;-38
2023/08/04 10:53:12;;;;;;;3.22;1.23;;;;;;;20.08;96.65;101394.03;5074120;28;20123;-38
2023/08/04 10:55:54;;;;;;;3.00;1.10;;;;;;;20.04;96.64;101391.81;5073662;28;20060;-37
2023/08/04 10:58:20;;;;;;;3.13;1.25;;;;;;;20.20;96.77;101394.50;5073571;28;20090;-37
2023/08/04 11:00:45;;;;;;;3.85;1.13;;;;;;;20.24;96.45;101385.41;5074004;28;20048;-38
2023/08/04 11:03:22;;;;;;;4.03;1.15;;;;;;;20.35;96.08;101397.19;5074040;28;20548;-38
2023/08/04 11:05:50;;;;;;;3.42;1.30;;;;;;;20.41;98.00;101390.56;5073662;28;20020;-38
2023/08/04 11:08:17;;;;;;;2.42;1.10;;;;;;;20.49;96.79;101389.97;5073734;28;20028;-38
2023/08/04 11:10:53;;;;;;;2.95;1.13;;;;;;;20.57;100.00;101400.38;5073352;28;20027;-38
2023/08/04 11:13:21;;;;;;;4.10;1.20;;;;;;;20.53;98.55;101398.47;5073399;28;20028;-38
2023/08/04 11:15:48;;;;;;;3.60;1.00;;;;;;;20.22;93.43;101414.28;5073361;28;20033;-38
2023/08/04 11:18:25;;;;;;;3.10;0.80;;;;;;;19.79;100.00;101411.13;5072958;28;20020;-38
2023/08/04 11:20:51;;;;;;;2.78;0.90;;;;;;;19.44;100.00;101420.25;5072993;28;20039;-38
2023/08/04 11:23:26;;;;;;;1.92;0.70;;;;;;;19.24;100.00;101424.66;5074078;28;20055;-38
2023/08/04 11:25:51;;;;;;;2.63;0.88;;;;;;;19.06;100.00;101408.75;5072883;28;20052;-38
2023/08/04 11:28:19;;;;;;;4.30;0.95;;;;;;;19.09;100.00;101424.66;5072992;28;20059;-38